Time;durP1;ratioP1;P1;durP2;ratioP2;P2;SDS_P1;SDS_P2;PMS_P1;PMS_P2;Temp;Humidity;BMP_temperature;BMP_pressure;BME280_temperature;BME280_humidity;BME280_pressure;Samples;Min_cycle;Max_cycle;Signal;HPM_P1;HPM_P2
2022/11/20 00:01:18;;;;;;;9.93;5.95;;;;;;;9.22;100.00;99708.06;5003723;28;20029;-70
2022/11/20 00:03:44;;;;;;;10.38;5.93;;;;;;;9.24;100.00;99708.91;5000847;28;20041;-70
2022/11/20 00:06:13;;;;;;;12.27;6.07;;;;;;;9.19;100.00;99703.72;5001974;28;20048;-70
2022/11/20 00:08:39;;;;;;;13.45;6.47;;;;;;;9.16;100.00;99697.63;5010609;28;20029;-70
2022/11/20 00:11:10;;;;;;;10.82;5.38;;;;;;;9.19;100.00;99698.41;5010930;28;20032;-70
2022/11/20 00:13:36;;;;;;;10.60;5.35;;;;;;;9.28;100.00;99706.09;5010628;28;20060;-70
2022/11/20 00:16:04;;;;;;;10.75;5.82;;;;;;;9.29;100.00;99709.63;5010691;28;20050;-70
2022/11/20 00:18:30;;;;;;;9.13;5.43;;;;;;;9.25;100.00;99710.63;5009287;28;20116;-70
2022/11/20 00:21:03;;;;;;;9.05;6.35;;;;;;;9.27;100.00;99714.94;5009254;28;20128;-70
2022/11/20 00:23:29;;;;;;;12.80;5.68;;;;;;;9.26;100.00;99717.66;5011631;28;20037;-71
2022/11/20 00:25:54;;;;;;;8.65;5.07;;;;;;;9.23;100.00;99708.03;5011584;28;20038;-70
2022/11/20 00:28:20;;;;;;;10.25;5.82;;;;;;;9.25;100.00;99715.94;5010474;28;20032;-71
2022/11/20 00:30:45;;;;;;;9.30;5.63;;;;;;;9.29;100.00;99712.28;5011733;28;20656;-70
2022/11/20 00:33:10;;;;;;;10.25;5.63;;;;;;;9.33;100.00;99708.59;5011646;28;20104;-70
2022/11/20 00:35:36;;;;;;;8.55;5.47;;;;;;;9.34;100.00;99705.88;5004677;28;20041;-70
2022/11/20 00:38:01;;;;;;;9.00;5.55;;;;;;;9.37;100.00;99704.94;4991815;28;20034;-70
2022/11/20 00:40:26;;;;;;;11.05;6.05;;;;;;;9.39;100.00;99713.69;4991961;28;20105;-71
2022/11/20 00:42:52;;;;;;;10.30;5.70;;;;;;;9.41;100.00;99711.84;4991889;28;20569;-71
2022/11/20 00:45:17;;;;;;;10.95;5.75;;;;;;;9.40;100.00;99707.47;4991651;28;20037;-69
2022/11/20 00:47:43;;;;;;;10.38;5.72;;;;;;;9.37;100.00;99699.63;5006946;28;20041;-68
2022/11/20 00:50:08;;;;;;;9.32;5.30;;;;;;;9.46;100.00;99709.94;4991792;28;20626;-69
2022/11/20 00:52:34;;;;;;;10.02;5.57;;;;;;;9.47;100.00;99711.69;4991567;28;20117;-69
2022/11/20 00:54:59;;;;;;;8.75;5.70;;;;;;;9.48;100.00;99708.09;5006628;28;20015;-69
2022/11/20 00:57:24;;;;;;;10.35;5.45;;;;;;;9.43;100.00;99698.53;4991514;28;20363;-68
2022/11/20 00:59:50;;;;;;;11.90;5.95;;;;;;;9.53;100.00;99715.91;4991531;28;20031;-69
2022/11/20 01:02:16;;;;;;;10.15;5.20;;;;;;;9.53;100.00;99716.78;4991672;28;20096;-70
2022/11/20 01:04:42;;;;;;;10.23;6.03;;;;;;;9.57;100.00;99710.44;4991351;28;20101;-70
2022/11/20 01:07:07;;;;;;;11.45;6.05;;;;;;;9.55;100.00;99709.63;4991381;28;20030;-70
2022/11/20 01:09:33;;;;;;;26.50;5.97;;;;;;;9.61;100.00;99716.50;4991266;28;20474;-69
2022/11/20 01:11:58;;;;;;;12.40;5.78;;;;;;;9.60;100.00;99717.44;4991461;28;20381;-69
2022/11/20 01:14:24;;;;;;;11.10;6.15;;;;;;;9.62;100.00;99716.44;4992212;28;20374;-69
2022/11/20 01:16:51;;;;;;;15.48;5.68;;;;;;;9.63;100.00;99717.34;4995890;28;20101;-69
2022/11/20 01:19:22;;;;;;;12.68;6.40;;;;;;;9.63;100.00;99718.22;5012903;28;20029;-69
2022/11/20 01:21:52;;;;;;;13.75;6.43;;;;;;;9.65;100.00;99716.38;5014789;28;20105;-69
2022/11/20 01:24:20;;;;;;;12.32;5.63;;;;;;;9.66;100.00;99711.91;5014955;28;20018;-69
2022/11/20 01:26:49;;;;;;;9.70;5.75;;;;;;;9.68;100.00;99721.59;5015216;28;20485;-69
2022/11/20 01:29:17;;;;;;;10.68;5.78;;;;;;;9.69;100.00;99727.72;5013648;28;20084;-69
2022/11/20 01:31:43;;;;;;;9.40;5.68;;;;;;;9.59;100.00;99715.72;5011714;28;20148;-69
2022/11/20 01:34:12;;;;;;;9.82;5.40;;;;;;;9.60;100.00;99731.59;5014657;28;20030;-69
2022/11/20 01:36:38;;;;;;;8.45;4.75;;;;;;;9.56;100.00;99715.78;4999684;28;20046;-69
2022/11/20 01:39:25;;;;;;;11.43;6.03;;;;;;;9.62;100.00;99721.75;4995213;28;20026;-69
2022/11/20 01:45:00;;;;;;;9.25;5.05;;;;;;;9.65;100.00;99719.03;4994491;28;20438;-69
2022/11/20 01:47:29;;;;;;;7.43;4.53;;;;;;;9.63;100.00;99722.63;4975202;28;20100;-70
2022/11/20 01:50:09;;;;;;;14.75;6.05;;;;;;;9.59;100.00;99721.88;4992772;28;20026;-69
2022/11/20 01:52:42;;;;;;;9.35;4.90;;;;;;;9.59;100.00;99705.94;4994997;28;20030;-69
2022/11/20 01:55:17;;;;;;;8.73;4.75;;;;;;;9.55;100.00;99708.75;4994737;28;20424;-69
2022/11/20 01:57:45;;;;;;;8.45;4.55;;;;;;;9.56;100.00;99716.66;4994834;28;20061;-69
2022/11/20 02:00:38;;;;;;;9.85;4.70;;;;;;;9.52;100.00;99708.88;5011619;28;20022;-67
2022/11/20 02:03:08;;;;;;;8.20;4.60;;;;;;;9.53;100.00;99711.47;4995136;28;20109;-67
2022/11/20 02:06:03;;;;;;;9.57;4.65;;;;;;;9.50;100.00;99716.88;4994285;28;20053;-68
2022/11/20 02:08:30;;;;;;;8.07;4.28;;;;;;;9.45;100.00;99708.19;4996626;28;20709;-67
2022/11/20 02:10:55;;;;;;;9.65;5.03;;;;;;;9.48;100.00;99718.72;4994542;28;20108;-68
2022/11/20 02:16:15;;;;;;;11.43;4.53;;;;;;;9.42;100.00;99704.78;4993400;28;20406;-68
2022/11/20 02:18:42;;;;;;;7.85;4.68;;;;;;;9.49;100.00;99708.97;4993736;28;20038;-68
2022/11/20 02:21:27;;;;;;;7.68;4.93;;;;;;;9.49;100.00;99707.16;4993570;28;20034;-68
2022/11/20 02:24:09;;;;;;;7.78;4.55;;;;;;;9.49;100.00;99712.47;4993583;28;20105;-68
2022/11/20 02:27:00;;;;;;;8.95;4.68;;;;;;;9.52;100.00;99712.41;4992723;28;20085;-68
2022/11/20 02:29:41;;;;;;;7.70;4.72;;;;;;;9.52;100.00;99708.88;4993674;28;20033;-68
2022/11/20 02:32:21;;;;;;;13.85;4.43;;;;;;;9.49;100.00;99704.50;4993978;28;20085;-67
2022/11/20 02:34:46;;;;;;;9.15;4.15;;;;;;;9.46;100.00;99701.06;4994099;28;20529;-67
2022/11/20 02:37:12;;;;;;;7.88;4.75;;;;;;;9.49;100.00;99704.50;4974697;28;20023;-67
2022/11/20 02:39:38;;;;;;;11.60;4.63;;;;;;;9.53;100.00;99703.50;4974809;28;20030;-67
2022/11/20 02:42:04;;;;;;;8.65;3.83;;;;;;;9.52;100.00;99703.56;4974551;28;20035;-67
2022/11/20 02:44:29;;;;;;;9.30;4.88;;;;;;;9.42;100.00;99681.75;4974383;28;20038;-68
2022/11/20 02:46:57;;;;;;;7.82;4.50;;;;;;;9.45;100.00;99702.88;4974457;28;20047;-67
2022/11/20 02:49:22;;;;;;;11.18;4.75;;;;;;;9.45;100.00;99692.28;4989132;28;20398;-67
2022/11/20 02:51:48;;;;;;;8.27;4.55;;;;;;;9.47;100.00;99695.75;4974436;28;20109;-67
2022/11/20 02:54:13;;;;;;;7.53;4.47;;;;;;;9.48;100.00;99694.81;4974453;28;20135;-68
2022/11/20 02:56:39;;;;;;;8.35;4.70;;;;;;;9.51;100.00;99702.69;4988946;28;20030;-68
2022/11/20 02:59:04;;;;;;;7.57;4.32;;;;;;;9.49;100.00;99704.50;4974199;28;20037;-67
2022/11/20 03:01:30;;;;;;;8.45;4.88;;;;;;;9.51;100.00;99702.69;4990190;28;20549;-68
2022/11/20 03:03:55;;;;;;;10.93;4.57;;;;;;;9.54;100.00;99713.19;4993164;28;20081;-67
2022/11/20 03:06:21;;;;;;;8.15;4.45;;;;;;;9.52;100.00;99714.19;4993334;28;20109;-68
2022/11/20 03:08:47;;;;;;;5.95;3.83;;;;;;;9.49;100.00;99701.00;4993537;28;20026;-68
2022/11/20 03:11:12;;;;;;;7.65;4.55;;;;;;;9.52;100.00;99715.06;4993447;28;20500;-68
2022/11/20 03:13:38;;;;;;;6.82;4.70;;;;;;;9.50;100.00;99711.56;4993334;28;20026;-67
2022/11/20 03:16:12;;;;;;;7.97;4.88;;;;;;;9.53;100.00;99708.81;5008074;28;20057;-67
2022/11/20 03:18:39;;;;;;;10.88;4.53;;;;;;;9.51;100.00;99707.97;4995868;28;20386;-67
2022/11/20 03:21:05;;;;;;;9.15;4.55;;;;;;;9.53;100.00;99707.94;4993211;28;20041;-67
2022/11/20 03:23:32;;;;;;;13.00;4.97;;;;;;;9.51;100.00;99707.97;4993269;28;20030;-67
2022/11/20 03:26:13;;;;;;;8.15;4.95;;;;;;;9.53;100.00;99703.50;4991529;28;20124;-68
2022/11/20 03:28:39;;;;;;;9.20;5.07;;;;;;;9.54;100.00;99702.56;4991461;28;20527;-68
2022/11/20 03:31:06;;;;;;;7.07;4.38;;;;;;;9.50;100.00;99700.94;4993119;28;20026;-68
2022/11/20 03:33:32;;;;;;;8.98;4.43;;;;;;;9.58;100.00;99701.56;4993055;28;20105;-67
2022/11/20 03:36:01;;;;;;;7.70;4.95;;;;;;;9.58;100.00;99709.53;4991353;28;20113;-68
2022/11/20 03:38:30;;;;;;;9.65;5.28;;;;;;;9.52;100.00;99699.13;4990823;28;20034;-67
2022/11/20 03:41:00;;;;;;;9.57;5.22;;;;;;;9.56;100.00;99708.69;4991169;28;20034;-67
2022/11/20 03:43:25;;;;;;;9.10;4.72;;;;;;;9.58;100.00;99704.22;4992770;28;20046;-68
2022/11/20 03:45:51;;;;;;;8.88;5.13;;;;;;;9.53;100.00;99692.00;4992674;28;20444;-67
2022/11/20 03:48:16;;;;;;;6.97;4.47;;;;;;;9.58;100.00;99696.25;4991416;28;20030;-68
2022/11/20 03:50:41;;;;;;;7.60;4.55;;;;;;;9.51;100.00;99692.06;5007312;28;20393;-67
2022/11/20 03:53:07;;;;;;;10.55;4.85;;;;;;;9.46;100.00;99685.16;4992334;28;20117;-67
2022/11/20 03:55:32;;;;;;;14.48;5.25;;;;;;;9.54;100.00;99693.75;4992577;28;20018;-68
2022/11/20 03:57:57;;;;;;;7.63;4.20;;;;;;;9.54;100.00;99697.25;4992487;28;20031;-67
2022/11/20 04:00:30;;;;;;;11.10;4.57;;;;;;;9.52;100.00;99691.16;5068490;28;20379;-68
2022/11/20 04:02:59;;;;;;;8.05;4.07;;;;;;;9.56;100.00;99695.44;5068225;28;20047;-68
2022/11/20 04:05:25;;;;;;;8.85;4.55;;;;;;;9.53;100.00;99684.91;5063503;28;20082;-68
2022/11/20 04:07:50;;;;;;;13.18;4.28;;;;;;;9.55;100.00;99688.41;5065912;28;20028;-68
2022/11/20 04:10:15;;;;;;;9.93;4.60;;;;;;;9.55;100.00;99693.72;5066034;28;20074;-68
2022/11/20 04:12:41;;;;;;;19.75;5.60;;;;;;;9.55;100.00;99688.41;5067802;28;20383;-68
2022/11/20 04:15:07;;;;;;;8.40;4.07;;;;;;;9.54;100.00;99691.94;5067506;28;20033;-69
2022/11/20 04:17:32;;;;;;;9.23;5.18;;;;;;;9.52;100.00;99691.16;5067318;28;20037;-69
2022/11/20 04:19:58;;;;;;;9.25;4.80;;;;;;;9.55;100.00;99691.06;5067157;28;20031;-68
2022/11/20 04:22:23;;;;;;;8.13;4.47;;;;;;;9.50;100.00;99695.66;5067039;28;20029;-68
2022/11/20 04:24:48;;;;;;;9.25;4.65;;;;;;;9.50;100.00;99690.34;5067304;28;20057;-68
2022/11/20 04:27:14;;;;;;;9.05;4.30;;;;;;;9.47;100.00;99687.78;5067440;28;20048;-68
2022/11/20 04:29:39;;;;;;;8.45;4.40;;;;;;;9.53;100.00;99694.66;5067921;28;20040;-68
2022/11/20 04:32:05;;;;;;;7.63;4.13;;;;;;;9.50;100.00;99685.03;5067630;28;20492;-68
2022/11/20 04:34:30;;;;;;;9.98;4.68;;;;;;;9.43;100.00;99678.19;5066324;28;20028;-68
2022/11/20 04:36:55;;;;;;;9.07;4.50;;;;;;;9.43;100.00;99678.19;5048355;28;20055;-68
2022/11/20 04:39:21;;;;;;;8.38;4.13;;;;;;;9.42;100.00;99689.72;5047725;28;20025;-69
2022/11/20 04:41:46;;;;;;;14.07;3.80;;;;;;;9.43;100.00;99687.91;5047588;28;20124;-68
2022/11/20 04:44:12;;;;;;;7.10;3.30;;;;;;;9.40;100.00;99686.25;5047861;28;20033;-68
2022/11/20 04:46:42;;;;;;;7.88;3.55;;;;;;;9.39;100.00;99689.81;5047576;28;20033;-68
2022/11/20 04:49:07;;;;;;;6.97;3.40;;;;;;;9.38;100.00;99680.13;5047402;28;20025;-68
2022/11/20 04:51:33;;;;;;;8.63;4.20;;;;;;;9.40;100.00;99688.91;5047334;28;20829;-68
2022/11/20 04:53:59;;;;;;;6.30;3.40;;;;;;;9.44;100.00;99692.31;5047439;28;20063;-68
2022/11/20 04:56:25;;;;;;;9.38;3.33;;;;;;;9.43;100.00;99693.22;5047445;28;20453;-68
2022/11/20 04:58:51;;;;;;;7.60;3.55;;;;;;;9.43;100.00;99688.78;5050043;28;20047;-68
2022/11/20 05:01:21;;;;;;;7.43;3.58;;;;;;;9.48;100.00;99684.19;5067138;28;20044;-68
2022/11/20 05:03:46;;;;;;;14.30;4.18;;;;;;;9.39;100.00;99681.84;5075812;28;20562;-68
2022/11/20 05:06:15;;;;;;;11.45;3.65;;;;;;;9.41;100.00;99680.00;5063713;28;20067;-68
2022/11/20 05:08:41;;;;;;;11.13;4.43;;;;;;;9.44;100.00;99681.72;5047077;28;20098;-68
2022/11/20 05:11:12;;;;;;;9.57;3.70;;;;;;;9.44;100.00;99687.00;5036614;28;20449;-68
2022/11/20 05:13:38;;;;;;;6.90;4.18;;;;;;;9.43;100.00;99678.19;5033754;28;20040;-68
2022/11/20 05:16:12;;;;;;;6.82;3.40;;;;;;;9.46;100.00;99682.50;5033722;28;20033;-68
2022/11/20 05:18:38;;;;;;;7.88;3.40;;;;;;;9.45;100.00;99679.00;5033412;28;20033;-68
2022/11/20 05:21:04;;;;;;;6.82;3.55;;;;;;;9.41;100.00;99680.00;5049714;28;20029;-67
2022/11/20 05:23:31;;;;;;;5.28;2.90;;;;;;;9.42;100.00;99681.75;5052457;28;20464;-68
2022/11/20 05:25:57;;;;;;;6.28;3.35;;;;;;;9.37;100.00;99682.81;5052435;28;20055;-68
2022/11/20 05:28:23;;;;;;;7.40;3.47;;;;;;;9.38;100.00;99680.13;5052351;28;20029;-68
2022/11/20 05:30:49;;;;;;;8.65;3.72;;;;;;;9.33;100.00;99677.63;5052153;28;20029;-67
2022/11/20 05:33:15;;;;;;;6.15;3.17;;;;;;;9.40;100.00;99678.28;5052225;28;20764;-69
2022/11/20 05:35:41;;;;;;;13.73;4.32;;;;;;;9.26;100.00;99654.84;5044820;28;20052;-67
2022/11/20 05:38:06;;;;;;;5.70;3.10;;;;;;;9.38;100.00;99671.28;5035350;28;20028;-67
2022/11/20 05:40:32;;;;;;;8.77;4.57;;;;;;;9.40;100.00;99678.28;5049893;28;20078;-68
2022/11/20 05:42:57;;;;;;;7.55;3.25;;;;;;;9.39;100.00;99676.53;5052734;28;20781;-68
2022/11/20 05:45:22;;;;;;;4.88;3.22;;;;;;;9.28;100.00;99654.78;5052819;28;20043;-68
2022/11/20 05:47:48;;;;;;;5.72;3.22;;;;;;;9.30;100.00;99671.53;5053119;28;20029;-68
2022/11/20 05:50:14;;;;;;;6.38;3.40;;;;;;;9.28;100.00;99673.38;5052977;28;20020;-69
2022/11/20 05:52:40;;;;;;;8.23;3.17;;;;;;;9.25;100.00;99674.34;5053084;28;20029;-68
2022/11/20 05:55:06;;;;;;;6.72;3.03;;;;;;;9.27;100.00;99676.94;5051595;28;20047;-68
2022/11/20 05:57:32;;;;;;;6.00;3.08;;;;;;;9.32;100.00;99675.03;5052812;28;20029;-68
2022/11/20 05:59:57;;;;;;;6.90;3.10;;;;;;;9.32;100.00;99675.03;5052602;28;20041;-68
2022/11/20 06:02:22;;;;;;;5.10;2.97;;;;;;;9.39;100.00;99679.19;5051270;28;20025;-68
2022/11/20 06:04:48;;;;;;;5.45;2.92;;;;;;;9.38;100.00;99677.47;5067826;28;20067;-66
2022/11/20 06:07:13;;;;;;;5.70;3.13;;;;;;;9.30;100.00;99660.94;5032826;28;20384;-67
2022/11/20 06:09:39;;;;;;;6.57;3.08;;;;;;;9.32;100.00;99665.25;5032686;28;20018;-66
2022/11/20 06:12:05;;;;;;;6.72;3.03;;;;;;;9.33;100.00;99677.63;5032875;28;20469;-66
2022/11/20 06:14:30;;;;;;;6.40;3.58;;;;;;;9.34;100.00;99679.34;5033545;28;20025;-67
2022/11/20 06:16:56;;;;;;;6.95;3.30;;;;;;;9.39;100.00;99679.19;5051794;28;20029;-67
2022/11/20 06:19:21;;;;;;;6.57;3.20;;;;;;;9.31;100.00;99673.25;5052483;28;20107;-67
2022/11/20 06:21:49;;;;;;;7.50;2.90;;;;;;;9.42;100.00;99692.38;5051779;28;20480;-67
2022/11/20 06:24:14;;;;;;;5.32;3.22;;;;;;;9.39;100.00;99687.16;5052120;28;20017;-67
2022/11/20 06:26:40;;;;;;;7.70;3.03;;;;;;;9.30;100.00;99671.53;5052245;28;20020;-68
2022/11/20 06:29:05;;;;;;;13.85;3.80;;;;;;;9.38;100.00;99687.19;5052204;28;20025;-67
2022/11/20 06:31:34;;;;;;;6.63;3.80;;;;;;;9.25;100.00;99674.34;5052286;28;20032;-67
2022/11/20 06:34:00;;;;;;;7.05;3.40;;;;;;;9.30;100.00;99682.16;5052379;28;20021;-66
2022/11/20 06:36:26;;;;;;;5.10;3.20;;;;;;;9.22;100.00;99681.53;5038510;28;20037;-67
2022/11/20 06:38:52;;;;;;;7.00;3.17;;;;;;;9.16;100.00;99679.06;5032192;28;20033;-66
2022/11/20 06:41:20;;;;;;;4.60;3.03;;;;;;;9.16;100.00;99681.72;5032333;28;20108;-66
2022/11/20 06:43:46;;;;;;;7.28;3.35;;;;;;;9.16;100.00;99681.72;5031967;28;20032;-66
2022/11/20 06:46:12;;;;;;;7.82;3.75;;;;;;;9.11;100.00;99673.03;5032155;28;20392;-66
2022/11/20 06:48:38;;;;;;;5.25;2.95;;;;;;;9.20;100.00;99688.69;5032025;28;20035;-66
2022/11/20 06:51:05;;;;;;;6.82;3.33;;;;;;;9.14;100.00;99676.47;5045119;28;20365;-66
2022/11/20 06:53:31;;;;;;;7.82;3.55;;;;;;;9.20;100.00;99684.25;5051868;28;20083;-66
2022/11/20 06:56:00;;;;;;;6.57;3.92;;;;;;;9.14;100.00;99675.63;5051955;28;20029;-66
2022/11/20 06:58:30;;;;;;;6.03;3.80;;;;;;;9.22;100.00;99689.50;5051308;28;20082;-67
2022/11/20 07:01:15;;;;;;;11.63;4.78;;;;;;;9.21;100.00;99698.38;5050209;28;20043;-66
2022/11/20 07:03:41;;;;;;;8.05;4.03;;;;;;;9.25;100.00;99697.34;5051169;28;20060;-66
2022/11/20 07:06:07;;;;;;;7.88;3.88;;;;;;;9.20;100.00;99696.63;5040615;28;20029;-66
2022/11/20 07:08:33;;;;;;;7.20;4.30;;;;;;;9.20;100.00;99696.63;5031729;28;20489;-66
2022/11/20 07:11:04;;;;;;;9.75;4.15;;;;;;;9.26;100.00;99701.75;5038053;28;20102;-66
2022/11/20 07:13:30;;;;;;;8.70;4.65;;;;;;;9.25;100.00;99700.88;5051469;28;20024;-66
2022/11/20 07:16:00;;;;;;;9.80;5.07;;;;;;;9.23;100.00;99704.50;5051359;28;20045;-66
2022/11/20 07:18:26;;;;;;;6.53;3.80;;;;;;;9.26;100.00;99712.34;5051201;28;20033;-66
2022/11/20 07:20:51;;;;;;;7.55;3.85;;;;;;;9.23;100.00;99717.75;5051200;28;20033;-66
2022/11/20 07:23:17;;;;;;;7.88;3.83;;;;;;;9.25;100.00;99718.59;5051095;28;20036;-66
2022/11/20 07:25:42;;;;;;;10.98;4.90;;;;;;;9.27;100.00;99711.44;5050088;28;20253;-66
2022/11/20 07:28:08;;;;;;;6.63;4.05;;;;;;;9.16;100.00;99701.16;5049807;28;20087;-66
2022/11/20 07:30:33;;;;;;;6.40;3.35;;;;;;;9.25;100.00;99719.47;5051045;28;20028;-67
2022/11/20 07:32:58;;;;;;;7.82;3.88;;;;;;;9.27;100.00;99719.41;5050824;28;20362;-66
2022/11/20 07:35:24;;;;;;;7.18;3.78;;;;;;;9.32;100.00;99722.78;5046507;28;20032;-66
2022/11/20 07:37:50;;;;;;;8.55;4.07;;;;;;;9.22;100.00;99711.56;5046779;28;20020;-66
2022/11/20 07:40:17;;;;;;;6.53;3.47;;;;;;;9.28;100.00;99729.97;5050776;28;20031;-66
2022/11/20 07:42:49;;;;;;;9.05;3.90;;;;;;;9.30;100.00;99725.50;5050593;28;20107;-67
2022/11/20 07:45:15;;;;;;;6.88;3.22;;;;;;;9.29;100.00;99722.91;5050684;28;20400;-66
2022/11/20 07:47:41;;;;;;;5.65;3.55;;;;;;;9.31;100.00;99736.97;5049680;28;20033;-66
2022/11/20 07:50:07;;;;;;;5.40;2.88;;;;;;;9.27;100.00;99724.72;5051008;28;20063;-66
2022/11/20 07:52:32;;;;;;;6.50;3.15;;;;;;;9.36;100.00;99735.03;5049437;28;20032;-67
2022/11/20 07:54:58;;;;;;;5.45;3.17;;;;;;;9.25;100.00;99727.44;5048074;28;20043;-67
2022/11/20 07:57:23;;;;;;;5.82;3.42;;;;;;;9.33;100.00;99735.13;5050132;28;20025;-67
2022/11/20 07:59:49;;;;;;;6.93;3.63;;;;;;;9.30;100.00;99730.81;5048787;28;20542;-67
2022/11/20 08:02:14;;;;;;;11.98;5.40;;;;;;;9.26;100.00;99733.59;5049998;28;20077;-66
2022/11/20 08:04:39;;;;;;;7.85;3.78;;;;;;;9.26;100.00;99738.88;5065906;28;20069;-66
2022/11/20 08:07:05;;;;;;;6.50;3.38;;;;;;;9.32;100.00;99736.06;5032309;28;20029;-67
2022/11/20 08:09:30;;;;;;;5.90;2.90;;;;;;;9.34;100.00;99737.72;5044849;28;20750;-67
2022/11/20 08:14:39;;;;;;;7.63;3.58;;;;;;;9.38;100.00;99749.13;5039534;28;20068;-67
2022/11/20 08:17:05;;;;;;;5.30;3.13;;;;;;;9.32;100.00;99738.72;5033403;28;20104;-67
2022/11/20 08:19:30;;;;;;;6.25;3.20;;;;;;;9.42;100.00;99756.09;5034439;28;20022;-67
2022/11/20 08:21:56;;;;;;;7.55;3.25;;;;;;;9.39;100.00;99750.84;5032751;28;20033;-67
2022/11/20 08:24:21;;;;;;;5.00;2.83;;;;;;;9.51;100.00;99766.41;5045464;28;20020;-67
2022/11/20 08:26:46;;;;;;;7.20;3.17;;;;;;;9.53;100.00;99761.91;5030597;28;20104;-67
2022/11/20 08:29:12;;;;;;;5.95;3.33;;;;;;;9.56;100.00;99767.13;5030502;28;20021;-67
2022/11/20 08:31:37;;;;;;;3.58;2.67;;;;;;;9.54;100.00;99771.59;5030519;28;20033;-67
2022/11/20 08:34:03;;;;;;;4.63;2.90;;;;;;;9.39;100.00;99747.34;5043279;28;20464;-67
2022/11/20 08:36:28;;;;;;;6.63;3.05;;;;;;;9.41;100.00;99751.69;5050277;28;20135;-66
2022/11/20 08:38:55;;;;;;;5.00;3.10;;;;;;;9.52;100.00;99775.22;5050363;28;20468;-67
2022/11/20 08:41:27;;;;;;;6.72;2.78;;;;;;;9.52;100.00;99776.13;5050257;28;20032;-68
2022/11/20 08:43:59;;;;;;;5.47;2.80;;;;;;;9.54;100.00;99787.53;5050525;28;20449;-67
2022/11/20 08:46:27;;;;;;;5.88;3.08;;;;;;;9.56;100.00;99783.03;5052680;28;20037;-67
2022/11/20 08:48:53;;;;;;;5.72;2.97;;;;;;;9.57;100.00;99775.97;5052610;28;20024;-67
2022/11/20 08:51:20;;;;;;;4.55;3.05;;;;;;;9.49;100.00;99765.56;5053936;28;20120;-67
2022/11/20 08:53:48;;;;;;;5.03;3.00;;;;;;;9.51;100.00;99781.44;5053736;28;20475;-67
2022/11/20 08:56:13;;;;;;;3.45;2.72;;;;;;;9.56;100.00;99791.00;5039067;28;20470;-66
2022/11/20 08:58:39;;;;;;;6.40;3.05;;;;;;;9.53;100.00;99780.50;5033850;28;20045;-67
2022/11/20 09:01:05;;;;;;;6.13;2.95;;;;;;;9.56;100.00;99783.03;5044885;28;20562;-67
2022/11/20 09:03:30;;;;;;;3.97;2.67;;;;;;;9.54;100.00;99770.75;5043397;28;20029;-67
2022/11/20 09:06:05;;;;;;;4.75;2.33;;;;;;;9.55;100.00;99776.00;5041170;28;20021;-67
2022/11/20 09:08:32;;;;;;;3.95;2.28;;;;;;;9.66;100.00;99795.09;5042172;28;20060;-67
2022/11/20 09:10:58;;;;;;;4.70;2.63;;;;;;;9.68;100.00;99789.75;5043271;28;20491;-67
2022/11/20 09:13:25;;;;;;;3.92;2.60;;;;;;;9.86;100.00;99797.09;5046456;28;20048;-67
2022/11/20 09:15:59;;;;;;;5.40;3.03;;;;;;;9.94;100.00;99798.59;5044880;28;20104;-67
2022/11/20 09:18:25;;;;;;;5.97;2.90;;;;;;;9.96;100.00;99796.75;5042239;28;20031;-66
2022/11/20 09:20:50;;;;;;;4.05;2.45;;;;;;;9.97;100.00;99798.50;5040552;28;20029;-67
2022/11/20 09:23:16;;;;;;;6.20;2.50;;;;;;;9.96;100.00;99786.13;5034958;28;20032;-67
2022/11/20 09:25:42;;;;;;;4.93;2.63;;;;;;;10.13;100.00;99799.72;5039043;28;20060;-67
2022/11/20 09:28:08;;;;;;;4.75;2.83;;;;;;;10.13;100.00;99805.03;5047990;28;20032;-68
2022/11/20 09:30:33;;;;;;;4.45;2.50;;;;;;;10.19;100.00;99806.63;5036876;28;20036;-67
2022/11/20 09:32:59;;;;;;;3.75;2.60;;;;;;;10.19;100.00;99807.50;5036855;28;20030;-67
2022/11/20 09:35:24;;;;;;;4.40;2.45;;;;;;;10.23;100.00;99810.94;5036380;28;20033;-67
2022/11/20 09:37:50;;;;;;;4.28;3.00;;;;;;;10.28;100.00;99809.00;5040484;28;20094;-67
2022/11/20 09:40:25;;;;;;;5.20;2.60;;;;;;;10.29;100.00;99811.59;5044646;28;20067;-67
2022/11/20 09:43:15;;;;;;;9.48;4.43;;;;;;;10.29;100.00;99821.34;5050403;28;20037;-68
2022/11/20 09:46:03;;;;;;;6.88;3.63;;;;;;;10.33;100.00;99815.88;5046871;28;20028;-66
2022/11/20 09:48:46;;;;;;;6.22;3.17;;;;;;;10.34;100.00;99817.63;5038829;28;20092;-67
2022/11/20 09:51:50;;;;;;;4.88;3.00;;;;;;;10.34;100.00;99814.97;5039309;28;20021;-67
2022/11/20 09:54:21;;;;;;;6.13;3.10;;;;;;;10.49;100.00;99819.72;5047376;28;20029;-68
2022/11/20 09:56:56;;;;;;;5.57;3.67;;;;;;;10.58;100.00;99823.84;5049305;28;20067;-67
2022/11/20 09:59:39;;;;;;;8.02;4.75;;;;;;;10.69;100.00;99826.13;5047799;28;20042;-66
2022/11/20 10:02:23;;;;;;;13.80;8.05;;;;;;;10.76;100.00;99822.34;5035605;28;20040;-67
2022/11/20 10:05:16;;;;;;;18.83;8.70;;;;;;;11.14;100.00;99824.41;5034783;28;20033;-67
2022/11/20 10:07:54;;;;;;;9.90;5.43;;;;;;;11.42;100.00;99803.78;5037008;28;20382;-67
2022/11/20 10:10:41;;;;;;;5.95;3.47;;;;;;;11.58;100.00;99799.63;5033599;28;20370;-66
2022/11/20 10:13:44;;;;;;;5.72;2.85;;;;;;;11.96;99.05;99814.91;5037233;28;20021;-67
2022/11/20 10:16:16;;;;;;;7.63;3.00;;;;;;;12.73;97.06;99812.47;5033342;28;20040;-67
2022/11/20 10:19:00;;;;;;;5.07;2.78;;;;;;;13.00;93.41;99804.97;5041059;28;20507;-66
2022/11/20 10:21:47;;;;;;;4.15;2.40;;;;;;;12.85;91.39;99808.38;5037717;28;20049;-66
2022/11/20 10:24:25;;;;;;;2.67;1.88;;;;;;;12.82;89.36;99803.16;5044773;28;20538;-67
2022/11/20 10:27:18;;;;;;;3.63;2.22;;;;;;;12.71;86.54;99800.97;5035786;28;20043;-67
2022/11/20 10:29:47;;;;;;;4.15;2.50;;;;;;;12.87;85.72;99794.00;5037253;28;20033;-67
2022/11/20 10:32:25;;;;;;;5.88;2.80;;;;;;;13.11;87.29;99776.88;5038794;28;20048;-68
2022/11/20 10:34:58;;;;;;;4.63;2.72;;;;;;;13.31;85.67;99788.47;5036566;28;20052;-68
2022/11/20 10:37:28;;;;;;;4.07;2.30;;;;;;;13.35;83.38;99792.69;5034945;28;20428;-68
2022/11/20 10:39:54;;;;;;;2.50;1.90;;;;;;;13.68;82.27;99799.97;5035328;28;20507;-67
2022/11/20 10:42:35;;;;;;;3.83;2.20;;;;;;;14.95;78.51;99788.94;5034300;28;20101;-66
2022/11/20 10:45:24;;;;;;;3.90;2.00;;;;;;;15.16;67.94;99781.53;5041090;28;20032;-67
2022/11/20 10:48:04;;;;;;;3.58;1.27;;;;;;;14.84;68.23;99769.91;5032359;28;20036;-67
2022/11/20 10:50:30;;;;;;;2.88;1.60;;;;;;;14.74;67.81;99776.69;5034195;28;20358;-67
2022/11/20 10:53:17;;;;;;;3.15;1.35;;;;;;;14.73;66.62;99771.44;5034145;28;20032;-67
2022/11/20 10:56:19;;;;;;;4.20;1.80;;;;;;;13.95;66.64;99773.69;5033929;28;20044;-67
2022/11/20 10:59:03;;;;;;;3.05;1.60;;;;;;;13.65;69.42;99767.19;5033086;28;20041;-67
2022/11/20 11:01:29;;;;;;;5.22;2.97;;;;;;;13.29;70.02;99766.28;5034070;28;20021;-66
2022/11/20 11:03:57;;;;;;;6.78;3.17;;;;;;;13.56;69.56;99763.16;5033975;28;20035;-66
2022/11/20 11:06:39;;;;;;;3.20;1.70;;;;;;;14.99;67.41;99734.22;5032264;28;20039;-66
2022/11/20 11:09:15;;;;;;;1.83;1.35;;;;;;;15.96;62.47;99736.75;5031306;28;20033;-66
2022/11/20 11:11:40;;;;;;;2.88;1.20;;;;;;;16.32;61.64;99735.44;5032943;28;20033;-66
2022/11/20 11:14:07;;;;;;;3.17;1.40;;;;;;;16.93;56.71;99722.63;5032424;28;20041;-67
2022/11/20 11:16:33;;;;;;;2.35;1.20;;;;;;;17.03;53.82;99739.91;5031691;28;20134;-68
2022/11/20 11:19:25;;;;;;;3.28;1.52;;;;;;;16.45;56.06;99730.16;5032875;28;21000;-66
2022/11/20 11:21:53;;;;;;;2.22;1.13;;;;;;;16.14;55.96;99730.28;5032786;28;20040;-66
2022/11/20 11:24:24;;;;;;;1.95;1.10;;;;;;;16.10;57.09;99721.56;5032230;28;20033;-67
2022/11/20 11:26:59;;;;;;;7.38;1.50;;;;;;;16.14;55.38;99714.19;5034383;28;20026;-66
2022/11/20 11:29:29;;;;;;;4.10;1.63;;;;;;;15.95;59.74;99716.25;5035354;28;20067;-66
2022/11/20 11:32:11;;;;;;;5.82;1.42;;;;;;;16.52;59.63;99705.56;5032727;28;20025;-67
2022/11/20 11:34:36;;;;;;;0.82;0.77;;;;;;;17.50;52.00;99711.84;5031671;28;20040;-67
2022/11/20 11:37:03;;;;;;;2.50;0.80;;;;;;;16.65;51.21;99700.31;5033486;28;20022;-68
2022/11/20 11:39:30;;;;;;;2.22;1.10;;;;;;;16.04;51.90;99699.59;5032130;28;20075;-66
2022/11/20 11:41:58;;;;;;;2.95;1.00;;;;;;;15.73;53.82;99695.19;5033509;28;20114;-67
2022/11/20 11:47:29;;;;;;;1.85;1.00;;;;;;;14.55;58.27;99684.91;5041710;28;20083;-65
2022/11/20 11:50:02;;;;;;;1.75;0.90;;;;;;;14.21;60.93;99682.28;5038291;28;20027;-66
2022/11/20 11:52:31;;;;;;;3.55;1.33;;;;;;;13.88;61.64;99690.25;5041727;28;20380;-66